sensor_id;sensor_type;location;lat;lon;timestamp;P1;durP1;ratioP1;P2;durP2;ratioP2
19191;SDS011;9728;48.194;16.346;2023-07-29T00:04:27;1.23;;;1.02;;
19191;SDS011;9728;48.194;16.346;2023-07-29T00:09:32;1.13;;;1.02;;
19191;SDS011;9728;48.194;16.346;2023-07-29T00:14:36;1.15;;;0.98;;
19191;SDS011;9728;48.194;16.346;2023-07-29T00:19:39;1.20;;;0.98;;
19191;SDS011;9728;48.194;16.346;2023-07-29T00:24:44;1.10;;;1.00;;
19191;SDS011;9728;48.194;16.346;2023-07-29T00:29:48;1.45;;;1.15;;
19191;SDS011;9728;48.194;16.346;2023-07-29T00:34:51;1.77;;;1.10;;
19191;SDS011;9728;48.194;16.346;2023-07-29T00:39:56;1.20;;;1.00;;
19191;SDS011;9728;48.194;16.346;2023-07-29T00:45:00;3.17;;;1.10;;
19191;SDS011;9728;48.194;16.346;2023-07-29T00:50:04;1.42;;;1.33;;
19191;SDS011;9728;48.194;16.346;2023-07-29T00:55:10;1.20;;;1.10;;
19191;SDS011;9728;48.194;16.346;2023-07-29T01:00:14;1.58;;;1.15;;
19191;SDS011;9728;48.194;16.346;2023-07-29T01:05:17;1.23;;;1.00;;
19191;SDS011;9728;48.194;16.346;2023-07-29T01:10:27;1.73;;;1.20;;
19191;SDS011;9728;48.194;16.346;2023-07-29T01:15:43;1.33;;;1.17;;
19191;SDS011;9728;48.194;16.346;2023-07-29T01:20:53;1.35;;;1.20;;
19191;SDS011;9728;48.194;16.346;2023-07-29T01:25:59;1.67;;;1.48;;
19191;SDS011;9728;48.194;16.346;2023-07-29T01:31:05;1.15;;;1.05;;
19191;SDS011;9728;48.194;16.346;2023-07-29T01:36:15;1.60;;;1.20;;
19191;SDS011;9728;48.194;16.346;2023-07-29T01:41:25;1.38;;;1.27;;
19191;SDS011;9728;48.194;16.346;2023-07-29T01:46:33;1.10;;;1.00;;
19191;SDS011;9728;48.194;16.346;2023-07-29T01:51:37;1.58;;;1.25;;
19191;SDS011;9728;48.194;16.346;2023-07-29T01:56:42;1.63;;;1.23;;
19191;SDS011;9728;48.194;16.346;2023-07-29T02:01:46;1.45;;;1.23;;
19191;SDS011;9728;48.194;16.346;2023-07-29T02:06:50;1.55;;;1.30;;
19191;SDS011;9728;48.194;16.346;2023-07-29T02:11:55;1.65;;;1.45;;
19191;SDS011;9728;48.194;16.346;2023-07-29T02:16:59;1.30;;;1.10;;
19191;SDS011;9728;48.194;16.346;2023-07-29T02:22:02;1.70;;;1.35;;
19191;SDS011;9728;48.194;16.346;2023-07-29T02:27:07;1.45;;;1.10;;
19191;SDS011;9728;48.194;16.346;2023-07-29T02:32:11;1.52;;;1.25;;
19191;SDS011;9728;48.194;16.346;2023-07-29T02:37:14;2.15;;;1.20;;
19191;SDS011;9728;48.194;16.346;2023-07-29T02:42:20;2.45;;;1.25;;
19191;SDS011;9728;48.194;16.346;2023-07-29T02:47:23;1.77;;;1.17;;
19191;SDS011;9728;48.194;16.346;2023-07-29T02:52:27;1.08;;;0.88;;
19191;SDS011;9728;48.194;16.346;2023-07-29T02:57:32;1.30;;;0.85;;
19191;SDS011;9728;48.194;16.346;2023-07-29T03:02:35;1.42;;;1.10;;
19191;SDS011;9728;48.194;16.346;2023-07-29T03:07:39;1.15;;;0.98;;
19191;SDS011;9728;48.194;16.346;2023-07-29T03:12:44;1.27;;;0.95;;
19191;SDS011;9728;48.194;16.346;2023-07-29T03:17:48;1.20;;;0.90;;
19191;SDS011;9728;48.194;16.346;2023-07-29T03:22:52;1.00;;;0.75;;
19191;SDS011;9728;48.194;16.346;2023-07-29T03:27:57;1.27;;;0.90;;
19191;SDS011;9728;48.194;16.346;2023-07-29T03:33:00;1.40;;;1.00;;
19191;SDS011;9728;48.194;16.346;2023-07-29T03:38:06;0.95;;;0.80;;
19191;SDS011;9728;48.194;16.346;2023-07-29T03:43:10;1.35;;;0.90;;
19191;SDS011;9728;48.194;16.346;2023-07-29T03:48:15;1.17;;;0.90;;
19191;SDS011;9728;48.194;16.346;2023-07-29T03:53:19;0.88;;;0.80;;
19191;SDS011;9728;48.194;16.346;2023-07-29T03:58:24;0.93;;;0.80;;
19191;SDS011;9728;48.194;16.346;2023-07-29T04:03:27;1.08;;;0.80;;
19191;SDS011;9728;48.194;16.346;2023-07-29T04:08:31;1.00;;;0.80;;
19191;SDS011;9728;48.194;16.346;2023-07-29T04:13:36;1.48;;;1.20;;
19191;SDS011;9728;48.194;16.346;2023-07-29T04:18:40;1.23;;;1.00;;
19191;SDS011;9728;48.194;16.346;2023-07-29T04:23:43;1.55;;;1.00;;
19191;SDS011;9728;48.194;16.346;2023-07-29T04:28:48;1.13;;;0.90;;
19191;SDS011;9728;48.194;16.346;2023-07-29T04:33:51;1.23;;;1.00;;
19191;SDS011;9728;48.194;16.346;2023-07-29T04:38:55;1.88;;;1.30;;
19191;SDS011;9728;48.194;16.346;2023-07-29T04:43:59;1.63;;;1.23;;
19191;SDS011;9728;48.194;16.346;2023-07-29T04:49:03;1.17;;;1.00;;
19191;SDS011;9728;48.194;16.346;2023-07-29T04:54:07;0.85;;;0.85;;
19191;SDS011;9728;48.194;16.346;2023-07-29T04:59:11;1.10;;;0.90;;
19191;SDS011;9728;48.194;16.346;2023-07-29T05:04:15;1.33;;;1.10;;
19191;SDS011;9728;48.194;16.346;2023-07-29T05:09:19;1.20;;;0.90;;
19191;SDS011;9728;48.194;16.346;2023-07-29T05:14:24;1.58;;;0.93;;
19191;SDS011;9728;48.194;16.346;2023-07-29T05:19:28;1.35;;;1.00;;
19191;SDS011;9728;48.194;16.346;2023-07-29T05:24:32;0.95;;;0.80;;
19191;SDS011;9728;48.194;16.346;2023-07-29T05:29:37;0.73;;;0.73;;
19191;SDS011;9728;48.194;16.346;2023-07-29T05:34:41;1.05;;;0.93;;
19191;SDS011;9728;48.194;16.346;2023-07-29T05:39:45;1.15;;;0.90;;
19191;SDS011;9728;48.194;16.346;2023-07-29T05:44:50;1.00;;;0.88;;
19191;SDS011;9728;48.194;16.346;2023-07-29T05:49:54;1.00;;;0.90;;
19191;SDS011;9728;48.194;16.346;2023-07-29T05:54:58;1.45;;;1.15;;
19191;SDS011;9728;48.194;16.346;2023-07-29T06:00:03;0.70;;;0.68;;
19191;SDS011;9728;48.194;16.346;2023-07-29T06:05:13;0.82;;;0.80;;
19191;SDS011;9728;48.194;16.346;2023-07-29T06:10:16;1.58;;;0.90;;
19191;SDS011;9728;48.194;16.346;2023-07-29T06:15:22;0.68;;;0.68;;
19191;SDS011;9728;48.194;16.346;2023-07-29T06:20:26;1.98;;;0.80;;
19191;SDS011;9728;48.194;16.346;2023-07-29T06:25:30;0.65;;;0.60;;
19191;SDS011;9728;48.194;16.346;2023-07-29T06:30:35;3.90;;;1.27;;
19191;SDS011;9728;48.194;16.346;2023-07-29T06:35:38;0.80;;;0.70;;
19191;SDS011;9728;48.194;16.346;2023-07-29T06:40:42;0.85;;;0.60;;
19191;SDS011;9728;48.194;16.346;2023-07-29T06:45:47;0.75;;;0.60;;
19191;SDS011;9728;48.194;16.346;2023-07-29T06:50:50;0.90;;;0.80;;
19191;SDS011;9728;48.194;16.346;2023-07-29T06:55:54;0.80;;;0.70;;
19191;SDS011;9728;48.194;16.346;2023-07-29T07:00:59;0.70;;;0.60;;
19191;SDS011;9728;48.194;16.346;2023-07-29T07:06:02;0.80;;;0.60;;
19191;SDS011;9728;48.194;16.346;2023-07-29T07:11:09;0.70;;;0.57;;
19191;SDS011;9728;48.194;16.346;2023-07-29T07:16:14;0.75;;;0.73;;
19191;SDS011;9728;48.194;16.346;2023-07-29T07:21:17;0.88;;;0.65;;
19191;SDS011;9728;48.194;16.346;2023-07-29T07:26:21;1.17;;;0.80;;
19191;SDS011;9728;48.194;16.346;2023-07-29T07:31:25;0.70;;;0.70;;
19191;SDS011;9728;48.194;16.346;2023-07-29T07:36:29;0.77;;;0.70;;
19191;SDS011;9728;48.194;16.346;2023-07-29T07:41:33;0.70;;;0.60;;
19191;SDS011;9728;48.194;16.346;2023-07-29T07:46:38;0.70;;;0.65;;
19191;SDS011;9728;48.194;16.346;2023-07-29T07:51:43;0.93;;;0.70;;
19191;SDS011;9728;48.194;16.346;2023-07-29T07:56:47;0.60;;;0.60;;
19191;SDS011;9728;48.194;16.346;2023-07-29T08:01:53;0.85;;;0.70;;
19191;SDS011;9728;48.194;16.346;2023-07-29T08:06:56;0.85;;;0.77;;
19191;SDS011;9728;48.194;16.346;2023-07-29T08:12:01;0.98;;;0.70;;
19191;SDS011;9728;48.194;16.346;2023-07-29T08:17:07;0.70;;;0.70;;
19191;SDS011;9728;48.194;16.346;2023-07-29T08:22:10;0.80;;;0.75;;
19191;SDS011;9728;48.194;16.346;2023-07-29T08:27:14;0.77;;;0.77;;
19191;SDS011;9728;48.194;16.346;2023-07-29T08:32:18;0.45;;;0.45;;
19191;SDS011;9728;48.194;16.346;2023-07-29T08:37:22;1.17;;;0.93;;
19191;SDS011;9728;48.194;16.346;2023-07-29T08:42:26;1.30;;;0.50;;
19191;SDS011;9728;48.194;16.346;2023-07-29T08:47:35;0.63;;;0.50;;
19191;SDS011;9728;48.194;16.346;2023-07-29T08:52:38;1.00;;;0.77;;
19191;SDS011;9728;48.194;16.346;2023-07-29T08:57:44;1.63;;;0.63;;
19191;SDS011;9728;48.194;16.346;2023-07-29T09:02:49;0.55;;;0.50;;
19191;SDS011;9728;48.194;16.346;2023-07-29T09:07:53;0.85;;;0.70;;
19191;SDS011;9728;48.194;16.346;2023-07-29T09:12:58;0.70;;;0.70;;
19191;SDS011;9728;48.194;16.346;2023-07-29T09:18:14;0.40;;;0.40;;
19191;SDS011;9728;48.194;16.346;2023-07-29T09:23:19;0.75;;;0.60;;
19191;SDS011;9728;48.194;16.346;2023-07-29T09:28:22;1.52;;;0.90;;
19191;SDS011;9728;48.194;16.346;2023-07-29T09:33:28;0.68;;;0.68;;
19191;SDS011;9728;48.194;16.346;2023-07-29T09:38:33;0.90;;;0.50;;
19191;SDS011;9728;48.194;16.346;2023-07-29T09:43:38;0.73;;;0.60;;
19191;SDS011;9728;48.194;16.346;2023-07-29T09:48:43;0.68;;;0.60;;
19191;SDS011;9728;48.194;16.346;2023-07-29T09:53:49;0.50;;;0.50;;
19191;SDS011;9728;48.194;16.346;2023-07-29T09:58:55;0.85;;;0.55;;
19191;SDS011;9728;48.194;16.346;2023-07-29T10:04:01;0.50;;;0.50;;
19191;SDS011;9728;48.194;16.346;2023-07-29T10:09:06;0.50;;;0.50;;
19191;SDS011;9728;48.194;16.346;2023-07-29T10:14:10;0.68;;;0.63;;
19191;SDS011;9728;48.194;16.346;2023-07-29T10:19:16;0.88;;;0.60;;
19191;SDS011;9728;48.194;16.346;2023-07-29T10:24:22;0.82;;;0.60;;
19191;SDS011;9728;48.194;16.346;2023-07-29T10:29:31;0.47;;;0.40;;
19191;SDS011;9728;48.194;16.346;2023-07-29T10:34:39;0.88;;;0.60;;
19191;SDS011;9728;48.194;16.346;2023-07-29T10:39:51;0.60;;;0.60;;
19191;SDS011;9728;48.194;16.346;2023-07-29T10:44:56;0.65;;;0.60;;
19191;SDS011;9728;48.194;16.346;2023-07-29T10:50:01;0.80;;;0.50;;
19191;SDS011;9728;48.194;16.346;2023-07-29T10:55:06;0.60;;;0.45;;
19191;SDS011;9728;48.194;16.346;2023-07-29T11:00:27;0.40;;;0.40;;
19191;SDS011;9728;48.194;16.346;2023-07-29T11:05:48;0.60;;;0.60;;
19191;SDS011;9728;48.194;16.346;2023-07-29T11:11:02;0.60;;;0.60;;
19191;SDS011;9728;48.194;16.346;2023-07-29T11:16:09;0.73;;;0.73;;
19191;SDS011;9728;48.194;16.346;2023-07-29T11:21:14;0.70;;;0.70;;
19191;SDS011;9728;48.194;16.346;2023-07-29T11:26:18;1.48;;;0.40;;
19191;SDS011;9728;48.194;16.346;2023-07-29T11:31:21;0.63;;;0.50;;
19191;SDS011;9728;48.194;16.346;2023-07-29T11:36:26;0.73;;;0.70;;
19191;SDS011;9728;48.194;16.346;2023-07-29T11:41:29;1.30;;;1.10;;
19191;SDS011;9728;48.194;16.346;2023-07-29T11:46:36;1.10;;;1.00;;
19191;SDS011;9728;48.194;16.346;2023-07-29T11:51:41;0.85;;;0.80;;
19191;SDS011;9728;48.194;16.346;2023-07-29T11:56:45;1.08;;;0.95;;
19191;SDS011;9728;48.194;16.346;2023-07-29T12:01:49;1.45;;;0.73;;
19191;SDS011;9728;48.194;16.346;2023-07-29T12:06:54;0.95;;;0.70;;
19191;SDS011;9728;48.194;16.346;2023-07-29T12:11:58;1.35;;;0.93;;
19191;SDS011;9728;48.194;16.346;2023-07-29T12:17:02;1.05;;;0.70;;
19191;SDS011;9728;48.194;16.346;2023-07-29T12:22:09;0.90;;;0.80;;
19191;SDS011;9728;48.194;16.346;2023-07-29T12:27:13;0.82;;;0.82;;
19191;SDS011;9728;48.194;16.346;2023-07-29T12:32:18;0.95;;;0.63;;
19191;SDS011;9728;48.194;16.346;2023-07-29T12:37:30;1.10;;;1.00;;
19191;SDS011;9728;48.194;16.346;2023-07-29T12:42:34;1.00;;;0.90;;
19191;SDS011;9728;48.194;16.346;2023-07-29T12:47:38;0.75;;;0.75;;
19191;SDS011;9728;48.194;16.346;2023-07-29T12:52:43;1.27;;;0.80;;
19191;SDS011;9728;48.194;16.346;2023-07-29T12:57:46;1.17;;;0.90;;
19191;SDS011;9728;48.194;16.346;2023-07-29T13:02:50;0.75;;;0.75;;
19191;SDS011;9728;48.194;16.346;2023-07-29T13:07:55;0.77;;;0.77;;
19191;SDS011;9728;48.194;16.346;2023-07-29T13:12:58;1.85;;;0.93;;
19191;SDS011;9728;48.194;16.346;2023-07-29T13:18:02;1.88;;;0.90;;
19191;SDS011;9728;48.194;16.346;2023-07-29T13:23:07;0.60;;;0.60;;
19191;SDS011;9728;48.194;16.346;2023-07-29T13:28:10;0.68;;;0.68;;
19191;SDS011;9728;48.194;16.346;2023-07-29T13:33:15;1.02;;;0.70;;
19191;SDS011;9728;48.194;16.346;2023-07-29T13:38:20;0.40;;;0.40;;
19191;SDS011;9728;48.194;16.346;2023-07-29T13:43:23;1.10;;;0.90;;
19191;SDS011;9728;48.194;16.346;2023-07-29T13:48:28;1.02;;;0.80;;
19191;SDS011;9728;48.194;16.346;2023-07-29T13:53:33;1.50;;;0.60;;
19191;SDS011;9728;48.194;16.346;2023-07-29T13:58:37;0.75;;;0.75;;
19191;SDS011;9728;48.194;16.346;2023-07-29T14:03:40;0.90;;;0.90;;
19191;SDS011;9728;48.194;16.346;2023-07-29T14:08:45;1.30;;;0.75;;
19191;SDS011;9728;48.194;16.346;2023-07-29T14:13:48;1.15;;;0.93;;
19191;SDS011;9728;48.194;16.346;2023-07-29T14:18:52;1.02;;;0.80;;
19191;SDS011;9728;48.194;16.346;2023-07-29T14:23:57;1.75;;;0.80;;
19191;SDS011;9728;48.194;16.346;2023-07-29T14:29:01;1.05;;;0.80;;
19191;SDS011;9728;48.194;16.346;2023-07-29T14:34:04;1.30;;;0.80;;
19191;SDS011;9728;48.194;16.346;2023-07-29T14:39:09;0.90;;;0.90;;
19191;SDS011;9728;48.194;16.346;2023-07-29T14:44:13;0.85;;;0.85;;
19191;SDS011;9728;48.194;16.346;2023-07-29T14:49:16;0.77;;;0.77;;
19191;SDS011;9728;48.194;16.346;2023-07-29T14:54:21;1.08;;;0.80;;
19191;SDS011;9728;48.194;16.346;2023-07-29T14:59:24;1.00;;;0.90;;
19191;SDS011;9728;48.194;16.346;2023-07-29T15:04:28;1.50;;;0.88;;
19191;SDS011;9728;48.194;16.346;2023-07-29T15:09:33;1.80;;;0.90;;
19191;SDS011;9728;48.194;16.346;2023-07-29T15:14:37;1.38;;;1.15;;
19191;SDS011;9728;48.194;16.346;2023-07-29T15:19:41;1.17;;;1.08;;
19191;SDS011;9728;48.194;16.346;2023-07-29T15:24:46;1.75;;;1.48;;
19191;SDS011;9728;48.194;16.346;2023-07-29T15:29:49;1.20;;;1.10;;
19191;SDS011;9728;48.194;16.346;2023-07-29T15:34:53;1.67;;;1.25;;
19191;SDS011;9728;48.194;16.346;2023-07-29T15:39:58;1.45;;;1.20;;
19191;SDS011;9728;48.194;16.346;2023-07-29T15:45:01;1.00;;;0.95;;
19191;SDS011;9728;48.194;16.346;2023-07-29T15:50:05;1.48;;;1.20;;
19191;SDS011;9728;48.194;16.346;2023-07-29T15:55:11;2.15;;;1.15;;
19191;SDS011;9728;48.194;16.346;2023-07-29T16:00:14;1.17;;;1.08;;
19191;SDS011;9728;48.194;16.346;2023-07-29T16:05:18;1.45;;;0.90;;
19191;SDS011;9728;48.194;16.346;2023-07-29T16:10:22;1.20;;;1.10;;
19191;SDS011;9728;48.194;16.346;2023-07-29T16:15:26;1.80;;;1.20;;
19191;SDS011;9728;48.194;16.346;2023-07-29T16:20:30;1.02;;;0.90;;
19191;SDS011;9728;48.194;16.346;2023-07-29T16:25:34;1.17;;;0.90;;
19191;SDS011;9728;48.194;16.346;2023-07-29T16:30:38;1.25;;;0.90;;
19191;SDS011;9728;48.194;16.346;2023-07-29T16:35:41;0.80;;;0.80;;
19191;SDS011;9728;48.194;16.346;2023-07-29T16:40:46;0.90;;;0.88;;
19191;SDS011;9728;48.194;16.346;2023-07-29T16:46:10;0.95;;;0.90;;
19191;SDS011;9728;48.194;16.346;2023-07-29T16:51:13;0.90;;;0.90;;
19191;SDS011;9728;48.194;16.346;2023-07-29T16:56:18;1.90;;;0.93;;
19191;SDS011;9728;48.194;16.346;2023-07-29T17:01:22;1.20;;;1.00;;
19191;SDS011;9728;48.194;16.346;2023-07-29T17:06:26;1.17;;;1.02;;
19191;SDS011;9728;48.194;16.346;2023-07-29T17:11:31;1.55;;;1.00;;
19191;SDS011;9728;48.194;16.346;2023-07-29T17:16:34;1.80;;;0.98;;
19191;SDS011;9728;48.194;16.346;2023-07-29T17:21:38;1.13;;;0.90;;
19191;SDS011;9728;48.194;16.346;2023-07-29T17:26:43;1.25;;;1.00;;
19191;SDS011;9728;48.194;16.346;2023-07-29T17:31:46;1.15;;;1.00;;
19191;SDS011;9728;48.194;16.346;2023-07-29T17:36:50;1.25;;;0.90;;
19191;SDS011;9728;48.194;16.346;2023-07-29T17:41:55;1.58;;;1.02;;
19191;SDS011;9728;48.194;16.346;2023-07-29T17:46:59;0.90;;;0.73;;
19191;SDS011;9728;48.194;16.346;2023-07-29T17:52:03;1.10;;;1.00;;
19191;SDS011;9728;48.194;16.346;2023-07-29T17:57:12;0.80;;;0.80;;
19191;SDS011;9728;48.194;16.346;2023-07-29T18:02:15;1.00;;;0.85;;
19191;SDS011;9728;48.194;16.346;2023-07-29T18:07:19;1.27;;;0.90;;
19191;SDS011;9728;48.194;16.346;2023-07-29T18:12:23;1.17;;;0.77;;
19191;SDS011;9728;48.194;16.346;2023-07-29T18:17:27;1.25;;;0.70;;
19191;SDS011;9728;48.194;16.346;2023-07-29T18:22:31;0.88;;;0.82;;
19191;SDS011;9728;48.194;16.346;2023-07-29T18:27:36;1.38;;;0.70;;
19191;SDS011;9728;48.194;16.346;2023-07-29T18:32:39;0.70;;;0.70;;
19191;SDS011;9728;48.194;16.346;2023-07-29T18:37:43;1.00;;;0.90;;
19191;SDS011;9728;48.194;16.346;2023-07-29T18:42:48;0.95;;;0.85;;
19191;SDS011;9728;48.194;16.346;2023-07-29T18:47:52;1.13;;;0.80;;
19191;SDS011;9728;48.194;16.346;2023-07-29T18:52:57;1.00;;;0.80;;
19191;SDS011;9728;48.194;16.346;2023-07-29T18:58:03;1.17;;;0.85;;
19191;SDS011;9728;48.194;16.346;2023-07-29T19:03:07;1.00;;;0.80;;
19191;SDS011;9728;48.194;16.346;2023-07-29T19:08:12;0.95;;;0.68;;
19191;SDS011;9728;48.194;16.346;2023-07-29T19:13:18;0.75;;;0.75;;
19191;SDS011;9728;48.194;16.346;2023-07-29T19:18:23;1.20;;;1.02;;
19191;SDS011;9728;48.194;16.346;2023-07-29T19:23:29;1.90;;;0.80;;
19191;SDS011;9728;48.194;16.346;2023-07-29T19:28:35;1.00;;;0.80;;
19191;SDS011;9728;48.194;16.346;2023-07-29T19:33:40;0.80;;;0.70;;
19191;SDS011;9728;48.194;16.346;2023-07-29T19:38:45;1.15;;;0.90;;
19191;SDS011;9728;48.194;16.346;2023-07-29T19:43:51;0.95;;;0.77;;
19191;SDS011;9728;48.194;16.346;2023-07-29T19:49:01;1.38;;;0.70;;
19191;SDS011;9728;48.194;16.346;2023-07-29T19:54:06;0.95;;;0.75;;
19191;SDS011;9728;48.194;16.346;2023-07-29T19:59:12;1.13;;;0.90;;
19191;SDS011;9728;48.194;16.346;2023-07-29T20:04:17;1.00;;;0.90;;
19191;SDS011;9728;48.194;16.346;2023-07-29T20:09:21;1.15;;;0.85;;
19191;SDS011;9728;48.194;16.346;2023-07-29T20:14:26;1.20;;;1.10;;
19191;SDS011;9728;48.194;16.346;2023-07-29T20:19:31;0.88;;;0.70;;
19191;SDS011;9728;48.194;16.346;2023-07-29T20:24:36;0.85;;;0.80;;
19191;SDS011;9728;48.194;16.346;2023-07-29T20:29:41;1.30;;;0.90;;
19191;SDS011;9728;48.194;16.346;2023-07-29T20:34:45;1.02;;;0.85;;
19191;SDS011;9728;48.194;16.346;2023-07-29T20:39:50;1.27;;;1.15;;
19191;SDS011;9728;48.194;16.346;2023-07-29T20:44:56;1.02;;;0.90;;
19191;SDS011;9728;48.194;16.346;2023-07-29T20:50:01;1.08;;;0.80;;
19191;SDS011;9728;48.194;16.346;2023-07-29T20:55:05;0.73;;;0.73;;
19191;SDS011;9728;48.194;16.346;2023-07-29T21:00:11;1.20;;;0.98;;
19191;SDS011;9728;48.194;16.346;2023-07-29T21:05:15;1.10;;;0.93;;
19191;SDS011;9728;48.194;16.346;2023-07-29T21:10:19;1.08;;;0.98;;
19191;SDS011;9728;48.194;16.346;2023-07-29T21:15:24;1.00;;;0.82;;
19191;SDS011;9728;48.194;16.346;2023-07-29T21:20:27;1.17;;;0.85;;
19191;SDS011;9728;48.194;16.346;2023-07-29T21:25:31;1.10;;;0.80;;
19191;SDS011;9728;48.194;16.346;2023-07-29T21:30:37;0.80;;;0.80;;
19191;SDS011;9728;48.194;16.346;2023-07-29T21:35:40;1.10;;;1.00;;
19191;SDS011;9728;48.194;16.346;2023-07-29T21:40:47;0.98;;;0.88;;
19191;SDS011;9728;48.194;16.346;2023-07-29T21:45:52;1.15;;;0.98;;
19191;SDS011;9728;48.194;16.346;2023-07-29T21:50:56;1.00;;;0.90;;
19191;SDS011;9728;48.194;16.346;2023-07-29T21:56:00;0.85;;;0.82;;
19191;SDS011;9728;48.194;16.346;2023-07-29T22:01:05;1.00;;;0.88;;
19191;SDS011;9728;48.194;16.346;2023-07-29T22:06:08;2.63;;;1.17;;
19191;SDS011;9728;48.194;16.346;2023-07-29T22:11:12;2.92;;;1.08;;
19191;SDS011;9728;48.194;16.346;2023-07-29T22:16:17;0.98;;;0.80;;
19191;SDS011;9728;48.194;16.346;2023-07-29T22:21:20;0.98;;;0.82;;
19191;SDS011;9728;48.194;16.346;2023-07-29T22:26:24;1.05;;;0.90;;
19191;SDS011;9728;48.194;16.346;2023-07-29T22:31:29;1.08;;;0.98;;
19191;SDS011;9728;48.194;16.346;2023-07-29T22:36:32;1.10;;;0.98;;
19191;SDS011;9728;48.194;16.346;2023-07-29T22:41:35;1.10;;;1.00;;
19191;SDS011;9728;48.194;16.346;2023-07-29T22:46:41;1.00;;;0.90;;
19191;SDS011;9728;48.194;16.346;2023-07-29T22:51:47;0.80;;;0.80;;
19191;SDS011;9728;48.194;16.346;2023-07-29T22:56:51;1.00;;;0.90;;
19191;SDS011;9728;48.194;16.346;2023-07-29T23:01:56;1.10;;;1.00;;
19191;SDS011;9728;48.194;16.346;2023-07-29T23:06:59;1.10;;;1.00;;
19191;SDS011;9728;48.194;16.346;2023-07-29T23:12:03;1.13;;;1.00;;
19191;SDS011;9728;48.194;16.346;2023-07-29T23:17:08;1.00;;;0.90;;
19191;SDS011;9728;48.194;16.346;2023-07-29T23:22:12;0.60;;;0.60;;
19191;SDS011;9728;48.194;16.346;2023-07-29T23:27:15;1.33;;;0.90;;
19191;SDS011;9728;48.194;16.346;2023-07-29T23:32:20;0.90;;;0.90;;
19191;SDS011;9728;48.194;16.346;2023-07-29T23:37:23;0.80;;;0.80;;
19191;SDS011;9728;48.194;16.346;2023-07-29T23:42:27;1.08;;;0.90;;
19191;SDS011;9728;48.194;16.346;2023-07-29T23:47:32;1.17;;;1.00;;
19191;SDS011;9728;48.194;16.346;2023-07-29T23:52:36;0.80;;;0.80;;
19191;SDS011;9728;48.194;16.346;2023-07-29T23:57:39;1.27;;;0.90;;
